createdAt,value
2019-03-23T00:00:10.740Z,46.20
2019-03-23T00:02:39.477Z,41.57
2019-03-23T00:05:08.880Z,45.43
2019-03-23T00:07:37.695Z,45.13
2019-03-23T00:10:07.271Z,46.30
2019-03-23T00:12:35.972Z,43.07
2019-03-23T00:15:09.972Z,41.73
2019-03-23T00:17:38.761Z,43.20
2019-03-23T00:20:07.755Z,45.40
2019-03-23T00:22:36.852Z,46.13
2019-03-23T00:25:05.741Z,49.57
2019-03-23T00:27:34.528Z,50.57
2019-03-23T00:30:04.753Z,48.93
2019-03-23T00:32:33.542Z,52.63
2019-03-23T00:35:02.328Z,50.63
2019-03-23T00:37:31.114Z,50.80
2019-03-23T00:39:59.907Z,49.43
2019-03-23T00:42:28.689Z,52.50
2019-03-23T00:44:57.378Z,51.60
2019-03-23T00:47:26.176Z,52.23
2019-03-23T00:49:54.953Z,49.97
2019-03-23T00:52:23.639Z,50.27
2019-03-23T00:54:52.428Z,52.00
2019-03-23T00:57:21.010Z,49.67
2019-03-23T00:59:49.803Z,49.10
2019-03-23T01:02:18.587Z,51.33
2019-03-23T01:04:47.273Z,48.13
2019-03-23T01:07:18.393Z,48.77
2019-03-23T01:09:47.203Z,49.70
2019-03-23T01:12:15.991Z,49.37
2019-03-23T01:14:44.779Z,51.07
2019-03-23T01:17:13.466Z,47.80
2019-03-23T01:19:44.406Z,47.40
2019-03-23T01:22:12.988Z,48.40
2019-03-23T01:24:41.775Z,49.80
2019-03-23T01:27:10.493Z,51.00
2019-03-23T01:29:39.254Z,48.40
2019-03-23T01:32:07.831Z,47.43
2019-03-23T01:34:36.623Z,45.63
2019-03-23T01:37:05.306Z,45.20
2019-03-23T01:39:34.095Z,46.00
2019-03-23T01:42:03.702Z,46.10
2019-03-23T01:44:32.388Z,47.50
2019-03-23T01:47:01.175Z,44.67
2019-03-23T01:49:29.964Z,44.20
2019-03-23T01:51:58.752Z,46.63
2019-03-23T01:54:27.543Z,46.80
2019-03-23T01:56:56.130Z,46.87
2019-03-23T01:59:24.811Z,47.77
2019-03-23T02:01:53.495Z,46.73
2019-03-23T02:04:22.185Z,45.87
2019-03-23T02:06:50.969Z,44.27
2019-03-23T02:09:19.655Z,44.23
2019-03-23T02:11:48.340Z,44.90
2019-03-23T02:14:17.028Z,45.50
2019-03-23T02:16:46.122Z,43.10
2019-03-23T02:19:14.808Z,43.63
2019-03-23T02:21:43.393Z,44.60
2019-03-23T02:24:12.179Z,46.07
2019-03-23T02:26:40.864Z,45.20
2019-03-23T02:29:09.653Z,46.13
2019-03-23T02:31:38.238Z,44.50
2019-03-23T02:34:06.923Z,46.10
2019-03-23T02:36:35.609Z,45.93
2019-03-23T02:39:05.729Z,41.80
2019-03-23T02:41:34.422Z,42.27
2019-03-23T02:44:03.206Z,44.50
2019-03-23T02:46:31.784Z,45.50
2019-03-23T02:49:00.573Z,41.60
2019-03-23T02:51:29.157Z,41.37
2019-03-23T02:53:57.946Z,42.87
2019-03-23T02:56:26.530Z,44.40
2019-03-23T02:58:55.214Z,41.93
2019-03-23T03:01:23.898Z,43.13
2019-03-23T03:03:52.693Z,42.23
2019-03-23T03:06:21.373Z,44.17
2019-03-23T03:08:50.053Z,42.73
2019-03-23T03:11:18.952Z,42.63
2019-03-23T03:13:47.637Z,43.07
2019-03-23T03:16:16.321Z,41.50
2019-03-23T03:18:45.110Z,43.07
2019-03-23T03:21:13.795Z,44.57
2019-03-23T03:23:42.492Z,43.50
2019-03-23T03:26:11.061Z,40.43
2019-03-23T03:28:39.853Z,38.53
2019-03-23T03:31:08.650Z,40.40
2019-03-23T03:33:37.562Z,40.90
2019-03-23T03:36:06.321Z,39.90
2019-03-23T03:38:35.012Z,38.70
2019-03-23T03:41:03.693Z,41.33
2019-03-23T03:43:32.579Z,43.33
2019-03-23T03:46:01.165Z,40.97
2019-03-23T03:48:29.956Z,39.37
2019-03-23T03:50:58.536Z,41.33
2019-03-23T03:53:27.218Z,40.03
2019-03-23T03:55:55.805Z,40.67
2019-03-23T03:58:24.597Z,40.37
2019-03-23T04:00:53.175Z,38.97
2019-03-23T04:03:21.966Z,40.77
2019-03-23T04:05:50.551Z,39.40
2019-03-23T04:08:19.335Z,42.70
2019-03-23T04:10:47.920Z,39.10
2019-03-23T04:13:16.707Z,41.00
2019-03-23T04:15:45.391Z,39.80
2019-03-23T04:18:14.180Z,38.00
2019-03-23T04:20:42.763Z,41.03
2019-03-23T04:23:11.550Z,41.17
2019-03-23T04:25:40.268Z,39.30
2019-03-23T04:28:09.037Z,39.00
2019-03-23T04:30:37.611Z,38.97
2019-03-23T04:33:06.305Z,38.70
2019-03-23T04:35:34.975Z,38.50
2019-03-23T04:38:06.124Z,38.87
2019-03-23T04:40:34.707Z,38.53
2019-03-23T04:43:03.606Z,38.70
2019-03-23T04:45:32.282Z,38.70
2019-03-23T04:48:01.083Z,38.83
2019-03-23T04:50:29.855Z,37.30
2019-03-23T04:52:58.543Z,39.77
2019-03-23T04:55:27.230Z,37.97
2019-03-23T04:57:55.917Z,36.57
2019-03-23T05:00:24.603Z,35.53
2019-03-23T05:02:53.287Z,36.63
2019-03-23T05:05:21.977Z,36.07
2019-03-23T05:07:50.669Z,36.50
2019-03-23T05:10:19.347Z,37.70
2019-03-23T05:12:48.134Z,36.93
2019-03-23T05:15:16.718Z,36.40
2019-03-23T05:17:45.402Z,36.97
2019-03-23T05:20:28.273Z,38.17
2019-03-23T05:22:57.007Z,36.40
2019-03-23T05:25:29.789Z,36.47
2019-03-23T05:27:59.131Z,37.47
2019-03-23T05:30:27.877Z,38.67
2019-03-23T05:32:56.878Z,37.10
2019-03-23T05:35:25.658Z,35.00
2019-03-23T05:37:56.603Z,37.10
2019-03-23T05:40:25.392Z,36.27
2019-03-23T05:42:54.181Z,36.30
2019-03-23T05:45:22.965Z,34.60
2019-03-23T05:47:51.655Z,34.10
2019-03-23T05:50:20.442Z,33.77
2019-03-23T05:52:49.229Z,34.10
2019-03-23T05:55:18.018Z,34.97
2019-03-23T05:57:46.908Z,33.83
2019-03-23T06:00:17.438Z,34.07
2019-03-23T06:02:46.122Z,33.97
2019-03-23T06:05:14.909Z,31.03
2019-03-23T06:07:43.698Z,34.50
2019-03-23T06:10:12.486Z,32.50
2019-03-23T06:12:41.280Z,32.73
2019-03-23T06:15:10.412Z,31.70
2019-03-23T06:17:39.072Z,31.93
2019-03-23T06:20:08.867Z,32.50
2019-03-23T06:22:37.455Z,32.47
2019-03-23T06:25:09.006Z,33.50
2019-03-23T06:27:37.791Z,38.60
2019-03-23T06:30:09.343Z,33.63
2019-03-23T06:32:38.131Z,34.87
2019-03-23T06:35:08.054Z,35.80
2019-03-23T06:37:36.731Z,37.00
2019-03-23T06:40:07.977Z,37.20
2019-03-23T06:42:36.764Z,37.17
2019-03-23T06:45:08.419Z,37.10
2019-03-23T06:47:37.107Z,35.50
2019-03-23T06:50:07.942Z,34.87
2019-03-23T06:52:36.627Z,35.80
2019-03-23T06:55:07.056Z,36.30
2019-03-23T06:57:36.149Z,34.73
2019-03-23T07:00:07.968Z,36.47
2019-03-23T07:02:36.693Z,41.73
2019-03-23T07:05:08.660Z,36.20
2019-03-23T07:07:37.407Z,35.07
2019-03-23T07:10:10.737Z,37.07
2019-03-23T07:12:39.529Z,34.07
2019-03-23T07:15:19.499Z,35.80
2019-03-23T07:17:41.197Z,36.67
2019-03-23T07:20:12.138Z,37.60
2019-03-23T07:22:40.823Z,40.20
2019-03-23T07:25:11.248Z,38.97
2019-03-23T07:27:40.037Z,36.80
2019-03-23T07:30:33.789Z,38.13
2019-03-23T07:33:02.731Z,38.50
2019-03-23T07:35:31.488Z,40.67
2019-03-23T07:38:00.174Z,40.03
2019-03-23T07:40:28.964Z,40.33
2019-03-23T07:42:57.652Z,38.97
2019-03-23T07:45:26.497Z,40.60
2019-03-23T07:47:55.230Z,40.30
2019-03-23T07:50:24.012Z,38.87
2019-03-23T07:52:52.701Z,39.73
2019-03-23T07:55:21.264Z,40.47
2019-03-23T07:57:49.983Z,41.30
2019-03-23T08:00:20.395Z,41.60
2019-03-23T08:02:49.292Z,42.93
2019-03-23T08:05:18.387Z,42.67
2019-03-23T08:07:47.069Z,43.70
2019-03-23T08:10:27.323Z,40.90
2019-03-23T08:12:56.214Z,40.00
2019-03-23T08:15:24.899Z,42.77
2019-03-23T08:17:53.585Z,45.23
2019-03-23T08:20:22.271Z,42.00
2019-03-23T08:22:51.164Z,42.00
2019-03-23T08:25:19.849Z,41.40
2019-03-23T08:27:48.532Z,42.43
2019-03-23T08:30:17.730Z,45.10
2019-03-23T08:32:46.415Z,43.33
2019-03-23T08:35:15.204Z,42.30
2019-03-23T08:37:43.992Z,44.20
2019-03-23T08:40:12.575Z,42.30
2019-03-23T08:42:41.363Z,43.67
2019-03-23T08:45:10.191Z,44.83
2019-03-23T08:47:39.046Z,43.67
2019-03-23T08:50:07.730Z,41.57
2019-03-23T08:52:36.516Z,42.87
2019-03-23T08:55:05.920Z,43.50
2019-03-23T08:57:34.865Z,41.93
2019-03-23T09:00:04.826Z,41.57
2019-03-23T09:02:33.617Z,42.67
2019-03-23T09:05:02.303Z,41.80
2019-03-23T09:07:31.088Z,44.30
2019-03-23T09:09:59.698Z,40.87
2019-03-23T09:12:28.460Z,41.13
2019-03-23T09:14:57.145Z,44.07
2019-03-23T09:17:25.850Z,41.90
2019-03-23T09:19:54.496Z,43.97
2019-03-23T09:22:23.204Z,40.77
2019-03-23T09:24:51.992Z,41.20
2019-03-23T09:27:20.779Z,40.93
2019-03-23T09:29:49.465Z,40.83
2019-03-23T09:32:18.151Z,43.43
2019-03-23T09:34:46.835Z,41.87
2019-03-23T09:37:15.624Z,41.93
2019-03-23T09:39:44.309Z,42.00
2019-03-23T09:42:12.994Z,39.00
2019-03-23T09:44:41.684Z,41.10
2019-03-23T09:47:10.469Z,39.93
2019-03-23T09:49:39.058Z,41.00
2019-03-23T09:52:07.841Z,40.40
2019-03-23T09:54:36.559Z,40.70
2019-03-23T09:57:05.520Z,39.03
2019-03-23T09:59:34.205Z,40.10
2019-03-23T10:02:02.992Z,40.87
2019-03-23T10:04:31.781Z,38.90
2019-03-23T10:07:00.570Z,38.17
2019-03-23T10:09:29.257Z,38.73
2019-03-23T10:11:59.266Z,40.33
2019-03-23T10:14:28.067Z,39.47
2019-03-23T10:16:56.745Z,39.90
2019-03-23T10:19:25.329Z,39.53
2019-03-23T10:21:54.117Z,39.40
2019-03-23T10:24:22.802Z,41.70
2019-03-23T10:26:52.300Z,39.23
2019-03-23T10:29:21.199Z,40.57
2019-03-23T10:31:49.986Z,39.80
2019-03-23T10:34:18.569Z,40.80
2019-03-23T10:36:47.360Z,40.83
2019-03-23T10:39:16.019Z,37.53
2019-03-23T10:41:44.629Z,38.07
2019-03-23T10:44:13.416Z,38.03
2019-03-23T10:46:42.203Z,39.50
2019-03-23T10:49:10.786Z,37.90
2019-03-23T10:51:39.575Z,40.20
2019-03-23T10:54:08.260Z,39.50
2019-03-23T10:56:37.049Z,39.17
2019-03-23T10:59:05.640Z,39.17
2019-03-23T11:01:34.419Z,38.40
2019-03-23T11:04:03.007Z,39.80
2019-03-23T11:06:31.689Z,44.77
2019-03-23T11:09:00.374Z,41.40
2019-03-23T11:11:29.162Z,43.60
2019-03-23T11:13:57.849Z,43.37
2019-03-23T11:16:26.571Z,44.60
2019-03-23T11:18:55.200Z,45.07
2019-03-23T11:21:23.904Z,47.93
2019-03-23T11:23:52.626Z,48.03
2019-03-23T11:26:21.481Z,45.40
2019-03-23T11:28:50.295Z,44.60
2019-03-23T11:31:20.287Z,46.37
2019-03-23T11:33:48.843Z,48.00
2019-03-23T11:36:17.555Z,44.03
2019-03-23T11:38:46.140Z,47.30
2019-03-23T11:41:14.750Z,44.57
2019-03-23T11:43:43.386Z,44.87
2019-03-23T11:46:12.196Z,49.10
2019-03-23T11:48:41.907Z,49.37
2019-03-23T11:51:10.695Z,47.97
2019-03-23T11:53:39.401Z,49.20
2019-03-23T11:56:08.167Z,50.70
2019-03-23T11:58:36.852Z,49.83
2019-03-23T12:01:05.642Z,51.73
2019-03-23T12:03:34.327Z,51.13
2019-03-23T12:06:03.121Z,49.80
2019-03-23T12:08:31.803Z,48.80
2019-03-23T12:11:03.155Z,49.43
2019-03-23T12:13:30.913Z,47.23
2019-03-23T12:15:59.805Z,49.90
2019-03-23T12:18:28.468Z,48.93
2019-03-23T12:20:57.279Z,48.27
2019-03-23T12:23:26.068Z,49.47
2019-03-23T12:25:54.853Z,48.17
2019-03-23T12:28:23.546Z,49.20
2019-03-23T12:30:52.328Z,51.30
2019-03-23T12:33:21.551Z,50.00
2019-03-23T12:35:50.518Z,50.50
2019-03-23T12:38:19.182Z,47.90
2019-03-23T12:40:47.890Z,48.03
2019-03-23T12:43:16.682Z,49.30
2019-03-23T12:45:45.568Z,48.43
2019-03-23T12:48:14.357Z,46.60
2019-03-23T12:50:43.051Z,44.53
2019-03-23T12:53:11.730Z,44.80
2019-03-23T12:55:42.261Z,44.73
2019-03-23T12:58:12.800Z,45.10
2019-03-23T13:00:41.577Z,42.63
2019-03-23T13:03:10.261Z,42.37
2019-03-23T13:05:39.150Z,40.93
2019-03-23T13:08:07.835Z,41.70
2019-03-23T13:10:40.200Z,43.07
2019-03-23T13:13:08.894Z,41.90
2019-03-23T13:15:37.582Z,40.57
2019-03-23T13:18:06.368Z,39.70
2019-03-23T13:23:03.728Z,37.57
2019-03-23T13:25:32.322Z,36.43
2019-03-23T13:28:01.114Z,34.67
2019-03-23T13:30:29.695Z,36.20
2019-03-23T13:32:58.482Z,35.30
2019-03-23T13:35:27.170Z,33.33
2019-03-23T13:37:55.830Z,34.70
2019-03-23T13:40:24.438Z,32.00
2019-03-23T13:42:53.327Z,31.30
2019-03-23T13:45:22.117Z,31.50
2019-03-23T13:47:50.905Z,31.60
2019-03-23T13:50:29.721Z,32.50
2019-03-23T13:52:58.473Z,33.20
2019-03-23T13:55:33.346Z,31.50
2019-03-23T13:58:14.530Z,33.10
2019-03-23T14:00:43.415Z,32.23
2019-03-23T14:03:12.511Z,32.70
2019-03-23T14:05:41.197Z,31.57
2019-03-23T14:08:09.779Z,31.57
2019-03-23T14:10:38.569Z,33.83
2019-03-23T14:13:07.150Z,32.53
2019-03-23T14:15:35.939Z,33.93
2019-03-23T14:18:05.141Z,33.30
2019-03-23T14:20:33.937Z,36.30
2019-03-23T14:23:03.229Z,34.37
2019-03-23T14:25:32.019Z,34.13
2019-03-23T14:28:00.704Z,34.20
2019-03-23T14:30:29.522Z,34.13
2019-03-23T14:32:58.077Z,34.63
2019-03-23T14:35:26.961Z,35.17
2019-03-23T14:37:55.550Z,34.87
2019-03-23T14:40:24.341Z,36.00
2019-03-23T14:42:52.920Z,34.53
2019-03-23T14:45:21.706Z,36.80
2019-03-23T14:47:50.393Z,37.17
2019-03-23T14:50:19.181Z,36.47
2019-03-23T14:52:47.878Z,36.87
2019-03-23T14:55:16.663Z,37.70
2019-03-23T14:57:45.344Z,36.37
2019-03-23T15:00:15.974Z,38.10
2019-03-23T15:02:44.557Z,35.90
2019-03-23T15:05:13.242Z,36.27
2019-03-23T15:07:42.338Z,35.80
2019-03-23T15:10:11.462Z,37.13
2019-03-23T15:12:40.120Z,35.37
2019-03-23T15:15:09.213Z,37.23
2019-03-23T15:17:37.771Z,38.17
2019-03-23T15:20:06.991Z,36.90
2019-03-23T15:22:35.779Z,36.30
2019-03-23T15:25:05.801Z,33.60
2019-03-23T15:27:34.382Z,36.70
2019-03-23T15:30:04.713Z,35.97
2019-03-23T15:32:33.366Z,36.20
2019-03-23T15:35:02.182Z,34.40
2019-03-23T15:37:30.866Z,34.33
2019-03-23T15:39:59.655Z,32.40
2019-03-23T15:42:29.465Z,33.00
2019-03-23T15:44:59.994Z,33.53
2019-03-23T15:47:30.419Z,32.10
2019-03-23T15:50:00.296Z,32.93
2019-03-23T15:52:28.917Z,31.43
2019-03-23T15:54:57.603Z,32.07
2019-03-23T15:57:26.291Z,33.47
2019-03-23T15:59:54.976Z,31.30
2019-03-23T16:02:23.660Z,32.50
2019-03-23T16:04:52.450Z,32.50
2019-03-23T16:07:29.274Z,31.80
2019-03-23T16:09:51.969Z,29.47
2019-03-23T16:12:20.554Z,30.63
2019-03-23T16:14:49.341Z,30.10
2019-03-23T16:17:18.026Z,29.17
2019-03-23T16:19:46.713Z,29.80
2019-03-23T16:22:15.501Z,30.50
2019-03-23T16:24:44.187Z,30.27
2019-03-23T16:27:12.872Z,28.17
2019-03-23T16:29:41.662Z,28.00
2019-03-23T16:32:10.345Z,29.53
2019-03-23T16:34:39.108Z,28.70
2019-03-23T16:37:07.820Z,28.97
2019-03-23T16:39:36.493Z,28.10
2019-03-23T16:42:05.191Z,29.50
2019-03-23T16:44:33.880Z,28.77
2019-03-23T16:47:02.670Z,28.03
2019-03-23T16:49:31.354Z,28.43
2019-03-23T16:52:00.141Z,27.63
2019-03-23T16:54:28.825Z,28.80
2019-03-23T16:56:57.617Z,27.63
2019-03-23T16:59:26.310Z,26.77
2019-03-23T17:01:55.086Z,26.67
2019-03-23T17:04:23.752Z,26.73
2019-03-23T17:06:52.330Z,25.90
2019-03-23T17:09:20.939Z,27.77
2019-03-23T17:11:49.625Z,25.37
2019-03-23T17:14:18.311Z,26.13
2019-03-23T17:16:47.102Z,25.23
2019-03-23T17:19:15.683Z,25.03
2019-03-23T17:21:44.472Z,23.97
2019-03-23T17:24:13.063Z,24.47
2019-03-23T17:26:41.842Z,25.50
2019-03-23T17:29:10.737Z,24.57
2019-03-23T17:31:39.521Z,25.73
2019-03-23T17:34:08.309Z,26.43
2019-03-23T17:36:37.201Z,26.37
2019-03-23T17:39:09.229Z,24.60
2019-03-23T17:41:37.850Z,23.03
2019-03-23T17:44:06.535Z,24.20
2019-03-23T17:46:37.186Z,23.90
2019-03-23T17:49:06.158Z,23.73
2019-03-23T17:51:35.049Z,23.30
2019-03-23T17:54:03.631Z,23.50
2019-03-23T17:56:32.351Z,22.27
2019-03-23T17:59:00.986Z,23.30
2019-03-23T18:01:29.688Z,22.40
2019-03-23T18:03:58.272Z,22.77
2019-03-23T18:06:27.266Z,22.90
2019-03-23T18:08:55.847Z,21.57
2019-03-23T18:11:24.638Z,20.90
2019-03-23T18:13:53.322Z,21.40
2019-03-23T18:16:22.112Z,22.87
2019-03-23T18:18:50.938Z,23.47
2019-03-23T18:21:19.586Z,22.37
2019-03-23T18:23:48.221Z,22.37
2019-03-23T18:26:16.959Z,23.80
2019-03-23T18:28:45.540Z,21.63
2019-03-23T18:31:16.196Z,21.23
2019-03-23T18:33:44.856Z,21.47
2019-03-23T18:36:13.655Z,23.47
2019-03-23T18:38:42.433Z,22.97
2019-03-23T18:41:14.092Z,25.77
2019-03-23T18:43:42.782Z,24.17
2019-03-23T18:46:11.561Z,24.63
2019-03-23T18:48:40.260Z,24.10
2019-03-23T18:51:09.035Z,25.30
2019-03-23T18:53:37.721Z,25.40
2019-03-23T18:56:06.409Z,22.80
2019-03-23T18:58:35.094Z,26.37
2019-03-23T19:01:03.893Z,25.27
2019-03-23T19:03:35.565Z,25.53
2019-03-23T19:06:05.866Z,25.73
2019-03-23T19:08:34.651Z,25.50
2019-03-23T19:11:03.767Z,24.30
2019-03-23T19:13:37.755Z,25.40
2019-03-23T19:16:02.858Z,28.17
2019-03-23T19:18:31.542Z,28.07
2019-03-23T19:21:00.228Z,27.00
2019-03-23T19:23:30.043Z,30.53
2019-03-23T19:25:58.728Z,33.17
2019-03-23T19:28:27.412Z,34.73
2019-03-23T19:30:56.114Z,32.17
2019-03-23T19:33:24.783Z,34.00
2019-03-23T19:35:53.748Z,33.97
2019-03-23T19:38:22.565Z,34.70
2019-03-23T19:40:51.659Z,36.63
2019-03-23T19:43:20.756Z,35.67
2019-03-23T19:45:49.442Z,35.40
2019-03-23T19:48:18.639Z,34.97
2019-03-23T19:50:47.429Z,37.80
2019-03-23T19:53:16.625Z,35.70
2019-03-23T19:55:45.513Z,39.57
2019-03-23T19:58:14.200Z,40.00
2019-03-23T20:00:42.784Z,41.37
2019-03-23T20:03:11.590Z,39.50
2019-03-23T20:05:40.258Z,39.90
2019-03-23T20:08:09.048Z,40.80
2019-03-23T20:10:37.721Z,42.20
2019-03-23T20:13:06.421Z,41.40
2019-03-23T20:15:35.205Z,39.90
2019-03-23T20:18:05.634Z,39.93
2019-03-23T20:20:34.941Z,41.20
2019-03-23T20:23:03.825Z,40.57
2019-03-23T20:25:32.510Z,42.00
2019-03-23T20:28:01.501Z,43.30
2019-03-23T20:30:30.288Z,43.57
2019-03-23T20:33:01.608Z,40.40
2019-03-23T20:35:30.527Z,42.20
2019-03-23T20:37:59.215Z,40.10
2019-03-23T20:40:29.539Z,41.03
2019-03-23T20:42:59.271Z,39.93
2019-03-23T20:45:30.613Z,41.37
2019-03-23T20:47:59.701Z,40.33
2019-03-23T20:50:28.377Z,41.07
2019-03-23T20:52:57.477Z,40.40
2019-03-23T20:55:28.628Z,41.57
2019-03-23T20:57:57.608Z,39.90
2019-03-23T21:00:26.399Z,41.37
2019-03-23T21:02:55.288Z,42.40
2019-03-23T21:05:33.112Z,40.40
2019-03-23T21:07:55.125Z,41.87
2019-03-23T21:10:23.799Z,42.97
2019-03-23T21:12:52.487Z,41.00
2019-03-23T21:15:21.275Z,41.87
2019-03-23T21:17:51.318Z,40.10
2019-03-23T21:20:20.386Z,40.83
2019-03-23T21:22:49.075Z,42.77
2019-03-23T21:25:17.654Z,42.87
2019-03-23T21:27:46.610Z,39.67
2019-03-23T21:30:18.304Z,39.67
2019-03-23T21:32:46.999Z,39.97
2019-03-23T21:35:16.074Z,39.90
2019-03-23T21:37:44.891Z,40.40
2019-03-23T21:40:13.976Z,40.77
2019-03-23T21:42:42.759Z,39.47
2019-03-23T21:45:13.615Z,39.10
2019-03-23T21:47:42.489Z,41.07
2019-03-23T21:50:11.682Z,38.60
2019-03-23T21:52:40.468Z,39.40
2019-03-23T21:55:10.790Z,36.37
2019-03-23T21:57:39.369Z,37.13
2019-03-23T22:00:09.192Z,38.27
2019-03-23T22:02:37.978Z,36.83
2019-03-23T22:05:07.780Z,37.03
2019-03-23T22:07:36.884Z,38.47
2019-03-23T22:10:08.747Z,39.20
2019-03-23T22:12:37.532Z,40.67
2019-03-23T22:15:08.784Z,38.70
2019-03-23T22:17:37.568Z,39.10
2019-03-23T22:20:07.796Z,38.60
2019-03-23T22:22:36.575Z,38.60
2019-03-23T22:25:06.798Z,37.57
2019-03-23T22:27:38.149Z,38.00
2019-03-23T22:30:09.904Z,37.13
2019-03-23T22:32:38.692Z,35.10
2019-03-23T22:35:07.914Z,37.60
2019-03-23T22:37:36.678Z,37.83
2019-03-23T22:40:08.435Z,36.57
2019-03-23T22:42:37.224Z,39.40
2019-03-23T22:45:07.958Z,37.63
2019-03-23T22:47:36.950Z,39.07
2019-03-23T22:50:07.352Z,37.70
2019-03-23T22:52:36.181Z,40.00
2019-03-23T22:55:07.615Z,38.30
2019-03-23T22:57:36.917Z,40.10
2019-03-23T23:00:20.964Z,39.97
2019-03-23T23:02:49.749Z,40.03
2019-03-23T23:05:18.559Z,40.80
2019-03-23T23:07:47.329Z,41.50
2019-03-23T23:10:15.987Z,41.50
2019-03-23T23:12:44.801Z,41.37
2019-03-23T23:15:13.794Z,43.00
2019-03-23T23:17:42.584Z,42.97
2019-03-23T23:20:11.908Z,42.47
2019-03-23T23:22:40.567Z,42.63
2019-03-23T23:25:09.870Z,42.73
2019-03-23T23:27:38.554Z,43.00
2019-03-23T23:30:09.230Z,43.57
2019-03-23T23:32:37.881Z,43.07
2019-03-23T23:35:10.535Z,42.73
2019-03-23T23:37:39.339Z,43.03
2019-03-23T23:40:08.334Z,42.33
2019-03-23T23:42:37.118Z,40.47
2019-03-23T23:45:15.379Z,40.33
2019-03-23T23:47:38.120Z,44.90
2019-03-23T23:50:07.276Z,44.87
2019-03-23T23:52:36.061Z,42.50
2019-03-23T23:55:06.190Z,42.90
2019-03-23T23:57:34.969Z,42.70
